createdAt,value
2019-03-30T00:02:22.786Z,2.95
2019-03-30T00:04:51.454Z,2.85
2019-03-30T00:07:20.150Z,2.84
2019-03-30T00:09:48.934Z,2.81
2019-03-30T00:12:17.619Z,2.84
2019-03-30T00:14:46.409Z,2.80
2019-03-30T00:17:15.093Z,2.63
2019-03-30T00:19:43.878Z,2.63
2019-03-30T00:22:12.570Z,2.60
2019-03-30T00:24:41.561Z,2.69
2019-03-30T00:27:10.249Z,2.44
2019-03-30T00:29:39.038Z,2.21
2019-03-30T00:32:07.724Z,2.39
2019-03-30T00:34:36.513Z,2.48
2019-03-30T00:37:05.299Z,2.52
2019-03-30T00:39:34.092Z,2.43
2019-03-30T00:42:02.789Z,2.51
2019-03-30T00:44:31.477Z,2.55
2019-03-30T00:47:00.133Z,2.48
2019-03-30T00:49:28.937Z,2.39
2019-03-30T00:51:57.629Z,2.48
2019-03-30T00:54:26.418Z,2.51
2019-03-30T00:56:55.229Z,2.42
2019-03-30T00:59:24.091Z,2.50
2019-03-30T01:01:52.801Z,2.40
2019-03-30T01:04:21.643Z,2.02
2019-03-30T01:06:50.363Z,2.29
2019-03-30T01:09:19.151Z,2.34
2019-03-30T01:11:47.834Z,2.27
2019-03-30T01:14:16.631Z,2.10
2019-03-30T01:16:45.409Z,2.10
2019-03-30T01:19:14.098Z,2.14
2019-03-30T01:21:42.785Z,2.07
2019-03-30T01:24:11.463Z,2.14
2019-03-30T01:26:40.158Z,2.08
2019-03-30T01:29:08.838Z,1.88
2019-03-30T01:31:37.633Z,1.95
2019-03-30T01:34:06.339Z,1.87
2019-03-30T01:36:35.102Z,1.82
2019-03-30T01:39:04.818Z,1.79
2019-03-30T01:41:33.505Z,1.84
2019-03-30T01:44:02.187Z,1.50
2019-03-30T01:46:30.977Z,1.54
2019-03-30T01:49:01.431Z,1.64
2019-03-30T01:51:30.192Z,1.78
2019-03-30T01:53:58.985Z,1.78
2019-03-30T01:56:27.673Z,1.92
2019-03-30T01:58:56.353Z,1.87
2019-03-30T02:01:25.139Z,1.80
2019-03-30T02:03:53.822Z,1.84
2019-03-30T02:06:22.881Z,1.79
2019-03-30T02:08:51.615Z,1.79
2019-03-30T02:11:20.296Z,1.82
2019-03-30T02:13:48.982Z,1.84
2019-03-30T02:16:17.681Z,1.82
2019-03-30T02:18:46.463Z,1.76
2019-03-30T02:21:15.157Z,1.76
2019-03-30T02:23:43.940Z,1.71
2019-03-30T02:26:12.730Z,1.58
2019-03-30T02:28:41.439Z,1.53
2019-03-30T02:31:10.105Z,1.42
2019-03-30T02:33:38.893Z,1.17
2019-03-30T02:36:07.592Z,1.37
2019-03-30T02:38:36.261Z,1.46
2019-03-30T02:41:05.359Z,1.50
2019-03-30T02:43:36.296Z,1.45
2019-03-30T02:46:04.984Z,1.57
2019-03-30T02:48:33.672Z,1.58
2019-03-30T02:51:02.459Z,1.56
2019-03-30T02:53:31.252Z,1.49
2019-03-30T02:55:59.933Z,1.43
2019-03-30T02:58:28.617Z,1.31
2019-03-30T03:00:57.324Z,1.22
2019-03-30T03:03:25.995Z,1.02
2019-03-30T03:05:54.790Z,0.83
2019-03-30T03:08:23.467Z,0.94
2019-03-30T03:10:52.158Z,1.16
2019-03-30T03:13:21.159Z,1.09
2019-03-30T03:15:49.758Z,1.16
2019-03-30T03:18:18.541Z,1.20
2019-03-30T03:20:47.216Z,1.17
2019-03-30T03:23:15.913Z,1.04
2019-03-30T03:25:44.687Z,1.07
2019-03-30T03:28:13.675Z,1.04
2019-03-30T03:30:42.400Z,1.04
2019-03-30T03:33:11.054Z,1.08
2019-03-30T03:35:39.736Z,0.94
2019-03-30T03:38:08.402Z,0.97
2019-03-30T03:40:37.106Z,0.95
2019-03-30T03:43:05.793Z,0.96
2019-03-30T03:45:34.686Z,0.95
2019-03-30T03:48:03.369Z,1.01
2019-03-30T03:50:43.252Z,0.94
2019-03-30T03:53:13.568Z,0.89
2019-03-30T03:55:42.847Z,0.86
2019-03-30T03:58:12.186Z,0.78
2019-03-30T04:00:41.340Z,0.85
2019-03-30T04:03:11.261Z,0.91
2019-03-30T04:05:40.364Z,0.82
2019-03-30T04:08:09.462Z,0.78
2019-03-30T04:10:38.747Z,0.78
2019-03-30T04:13:09.178Z,0.68
2019-03-30T04:15:42.713Z,0.66
2019-03-30T04:18:11.379Z,0.68
2019-03-30T04:20:40.159Z,0.61
2019-03-30T04:23:08.839Z,0.65
2019-03-30T04:25:37.530Z,0.71
2019-03-30T04:28:06.323Z,0.38
2019-03-30T04:30:35.041Z,0.57
2019-03-30T04:33:03.794Z,0.66
2019-03-30T04:35:32.495Z,0.65
2019-03-30T04:38:01.179Z,0.67
2019-03-30T04:40:29.852Z,0.71
2019-03-30T04:42:58.455Z,0.70
2019-03-30T04:45:27.225Z,0.70
2019-03-30T04:47:55.931Z,0.68
2019-03-30T04:50:24.704Z,0.63
2019-03-30T04:52:53.385Z,0.55
2019-03-30T04:55:22.157Z,0.57
2019-03-30T04:57:50.865Z,0.54
2019-03-30T05:00:19.748Z,0.59
2019-03-30T05:02:48.434Z,0.56
2019-03-30T05:05:17.226Z,0.54
2019-03-30T05:07:46.953Z,0.61
2019-03-30T05:10:15.612Z,0.55
2019-03-30T05:12:44.316Z,0.53
2019-03-30T05:15:12.994Z,0.54
2019-03-30T05:17:47.659Z,0.48
2019-03-30T05:20:12.104Z,0.59
2019-03-30T05:22:40.793Z,0.64
2019-03-30T05:25:09.697Z,0.63
2019-03-30T05:27:38.373Z,0.60
2019-03-30T05:30:07.990Z,1.60
2019-03-30T05:32:36.774Z,3.69
2019-03-30T05:35:07.262Z,4.40
2019-03-30T05:37:35.920Z,5.43
2019-03-30T05:40:06.934Z,5.53
2019-03-30T05:42:35.719Z,6.93
2019-03-30T05:45:06.201Z,7.44
2019-03-30T05:47:34.924Z,8.08
2019-03-30T05:50:04.540Z,7.82
2019-03-30T05:52:35.601Z,7.14
2019-03-30T05:55:03.754Z,5.65
2019-03-30T05:57:32.539Z,4.65
2019-03-30T06:00:01.157Z,4.02
2019-03-30T06:02:32.183Z,4.01
2019-03-30T06:05:03.374Z,3.88
2019-03-30T06:07:31.262Z,3.96
2019-03-30T06:09:59.883Z,4.02
2019-03-30T06:12:28.631Z,3.72
2019-03-30T06:14:57.305Z,3.85
2019-03-30T06:17:26.014Z,3.95
2019-03-30T06:19:54.699Z,4.32
2019-03-30T06:22:23.388Z,4.57
2019-03-30T06:24:52.113Z,4.62
2019-03-30T06:27:20.795Z,4.61
2019-03-30T06:30:23.790Z,5.01
2019-03-30T06:32:52.522Z,5.00
2019-03-30T06:35:21.192Z,5.13
2019-03-30T06:37:49.930Z,4.70
2019-03-30T06:40:18.597Z,4.58
2019-03-30T06:42:50.453Z,4.43
2019-03-30T06:45:19.154Z,4.96
2019-03-30T06:47:47.926Z,4.99
2019-03-30T06:50:16.905Z,5.39
2019-03-30T06:52:56.732Z,5.08
2019-03-30T06:55:16.131Z,4.92
2019-03-30T06:57:44.765Z,4.72
2019-03-30T07:00:13.542Z,4.72
2019-03-30T07:02:42.877Z,5.09
2019-03-30T07:05:13.634Z,5.98
2019-03-30T07:07:45.061Z,5.67
2019-03-30T07:10:14.171Z,5.53
2019-03-30T07:12:42.862Z,5.80
2019-03-30T07:15:11.872Z,5.99
2019-03-30T07:17:46.159Z,6.17
2019-03-30T07:20:17.902Z,5.95
2019-03-30T07:22:46.767Z,5.98
2019-03-30T07:25:15.461Z,6.58
2019-03-30T07:27:44.092Z,6.62
2019-03-30T07:30:12.959Z,7.01
2019-03-30T07:32:41.621Z,7.14
2019-03-30T07:35:11.912Z,7.67
2019-03-30T07:37:40.711Z,7.60
2019-03-30T07:40:09.377Z,7.62
2019-03-30T07:42:38.242Z,7.69
2019-03-30T07:45:07.465Z,8.22
2019-03-30T07:47:36.157Z,7.91
2019-03-30T07:50:09.890Z,7.71
2019-03-30T07:52:38.630Z,8.72
2019-03-30T07:55:07.362Z,8.79
2019-03-30T07:57:36.045Z,8.87
2019-03-30T08:00:09.390Z,9.62
2019-03-30T08:02:38.093Z,9.99
2019-03-30T08:05:07.971Z,10.20
2019-03-30T08:07:36.597Z,9.18
2019-03-30T08:10:06.479Z,9.55
2019-03-30T08:12:36.953Z,9.97
2019-03-30T08:15:09.086Z,9.87
2019-03-30T08:17:37.709Z,9.36
2019-03-30T08:20:07.871Z,9.73
2019-03-30T08:22:36.952Z,9.45
2019-03-30T08:25:06.782Z,9.57
2019-03-30T08:27:35.399Z,9.59
2019-03-30T08:30:04.910Z,9.31
2019-03-30T08:32:33.597Z,9.96
2019-03-30T08:35:02.218Z,10.69
2019-03-30T08:37:30.955Z,10.19
2019-03-30T08:39:59.637Z,10.59
2019-03-30T08:42:28.309Z,10.17
2019-03-30T08:44:57.054Z,11.00
2019-03-30T08:47:25.815Z,11.11
2019-03-30T08:49:54.419Z,11.67
2019-03-30T08:52:23.097Z,11.65
2019-03-30T08:54:51.828Z,11.11
2019-03-30T08:57:22.017Z,11.48
2019-03-30T08:59:50.692Z,11.11
2019-03-30T09:02:19.445Z,11.37
2019-03-30T09:04:48.050Z,11.99
2019-03-30T09:07:16.760Z,12.36
2019-03-30T09:09:47.063Z,12.05
2019-03-30T09:12:15.763Z,12.73
2019-03-30T09:14:44.406Z,12.05
2019-03-30T09:17:13.084Z,12.12
2019-03-30T09:19:41.715Z,12.15
2019-03-30T09:22:10.534Z,12.16
2019-03-30T09:24:39.161Z,12.39
2019-03-30T09:27:07.763Z,12.69
2019-03-30T09:29:36.465Z,12.76
2019-03-30T09:32:14.461Z,12.35
2019-03-30T09:34:35.578Z,12.26
2019-03-30T09:37:04.208Z,11.98
2019-03-30T09:39:32.898Z,12.11
2019-03-30T09:42:01.505Z,13.10
2019-03-30T09:44:30.115Z,13.47
2019-03-30T09:46:58.851Z,12.91
2019-03-30T09:49:27.547Z,13.46
2019-03-30T09:51:56.164Z,13.13
2019-03-30T09:54:24.813Z,13.38
2019-03-30T09:56:53.526Z,13.86
2019-03-30T09:59:22.205Z,13.92
2019-03-30T10:01:50.871Z,14.65
2019-03-30T10:04:19.562Z,13.68
2019-03-30T10:06:48.214Z,13.69
2019-03-30T10:09:16.946Z,14.54
2019-03-30T10:11:45.618Z,14.49
2019-03-30T10:14:14.230Z,14.66
2019-03-30T10:16:42.913Z,14.84
2019-03-30T10:19:11.532Z,14.76
2019-03-30T10:21:40.206Z,15.37
2019-03-30T10:24:08.836Z,15.13
2019-03-30T10:26:37.525Z,14.58
2019-03-30T10:29:06.136Z,15.77
2019-03-30T10:31:34.847Z,15.89
2019-03-30T10:34:03.479Z,16.40
2019-03-30T10:36:32.284Z,16.22
2019-03-30T10:39:00.981Z,16.36
2019-03-30T10:41:29.672Z,15.59
2019-03-30T10:43:58.355Z,16.04
2019-03-30T10:46:28.507Z,16.30
2019-03-30T10:48:57.113Z,16.19
2019-03-30T10:51:25.794Z,16.85
2019-03-30T10:53:54.422Z,17.08
2019-03-30T10:56:23.104Z,16.68
2019-03-30T10:58:51.718Z,16.40
2019-03-30T11:01:20.339Z,16.21
2019-03-30T11:03:49.007Z,17.04
2019-03-30T11:06:17.693Z,16.89
2019-03-30T11:08:46.312Z,17.17
2019-03-30T11:11:14.961Z,17.19
2019-03-30T11:13:43.583Z,16.72
2019-03-30T11:16:12.265Z,17.18
2019-03-30T11:18:40.973Z,17.64
2019-03-30T11:21:09.656Z,17.51
2019-03-30T11:23:40.327Z,17.84
2019-03-30T11:26:09.030Z,17.53
2019-03-30T11:28:37.715Z,17.87
2019-03-30T11:31:06.439Z,17.71
2019-03-30T11:33:35.068Z,18.32
2019-03-30T11:36:03.786Z,18.90
2019-03-30T11:38:32.408Z,18.97
2019-03-30T11:41:01.125Z,19.41
2019-03-30T11:43:30.007Z,17.81
2019-03-30T11:45:58.663Z,18.30
2019-03-30T11:48:27.446Z,18.00
2019-03-30T11:50:56.131Z,18.44
2019-03-30T11:53:24.771Z,19.04
2019-03-30T11:55:53.475Z,18.86
2019-03-30T11:58:22.235Z,18.81
2019-03-30T12:00:50.885Z,18.21
2019-03-30T12:03:19.579Z,18.87
2019-03-30T12:05:48.201Z,18.56
2019-03-30T12:08:16.891Z,18.54
2019-03-30T12:10:45.547Z,18.82
2019-03-30T12:13:14.262Z,19.38
2019-03-30T12:15:42.951Z,19.54
2019-03-30T12:18:11.631Z,19.84
2019-03-30T12:20:40.268Z,19.43
2019-03-30T12:23:08.974Z,19.32
2019-03-30T12:25:37.596Z,19.24
2019-03-30T12:28:06.283Z,18.61
2019-03-30T12:30:34.905Z,19.06
2019-03-30T12:33:03.556Z,19.19
2019-03-30T12:35:32.247Z,18.87
2019-03-30T12:38:00.942Z,18.40
2019-03-30T12:40:29.651Z,18.43
2019-03-30T12:42:58.303Z,18.78
2019-03-30T12:45:28.540Z,18.77
2019-03-30T12:47:57.180Z,18.68
2019-03-30T12:50:25.808Z,18.86
2019-03-30T12:52:54.509Z,19.15
2019-03-30T12:55:23.195Z,18.62
2019-03-30T12:57:51.821Z,18.94
2019-03-30T13:00:20.499Z,18.85
2019-03-30T13:02:49.124Z,19.02
2019-03-30T13:05:17.808Z,19.59
2019-03-30T13:07:46.468Z,19.64
2019-03-30T13:10:15.186Z,19.22
2019-03-30T13:12:43.876Z,19.60
2019-03-30T13:15:12.907Z,19.52
2019-03-30T13:17:41.557Z,19.57
2019-03-30T13:20:10.228Z,19.47
2019-03-30T13:22:40.447Z,19.80
2019-03-30T13:25:09.062Z,19.57
2019-03-30T13:27:37.701Z,19.44
2019-03-30T13:30:08.470Z,19.21
2019-03-30T13:32:37.151Z,19.18
2019-03-30T13:35:06.190Z,19.80
2019-03-30T13:37:34.867Z,19.55
2019-03-30T13:40:04.191Z,19.95
2019-03-30T13:42:32.815Z,20.10
2019-03-30T13:45:03.536Z,20.09
2019-03-30T13:47:31.933Z,20.13
2019-03-30T13:50:00.574Z,20.32
2019-03-30T13:52:29.259Z,20.03
2019-03-30T13:54:57.896Z,19.77
2019-03-30T13:57:26.591Z,20.01
2019-03-30T13:59:55.210Z,20.28
2019-03-30T14:02:23.886Z,20.20
2019-03-30T14:04:52.693Z,20.69
2019-03-30T14:07:21.416Z,20.57
2019-03-30T14:09:50.125Z,20.21
2019-03-30T14:12:18.737Z,20.35
2019-03-30T14:14:47.417Z,20.23
2019-03-30T14:17:16.046Z,20.19
2019-03-30T14:19:44.716Z,20.48
2019-03-30T14:22:13.343Z,20.23
2019-03-30T14:24:42.016Z,20.29
2019-03-30T14:27:10.640Z,20.11
2019-03-30T14:29:42.423Z,20.11
2019-03-30T14:32:11.040Z,20.13
2019-03-30T14:34:39.774Z,20.13
2019-03-30T14:37:08.481Z,20.13
2019-03-30T14:39:37.094Z,20.25
2019-03-30T14:42:05.791Z,20.23
2019-03-30T14:44:34.395Z,20.16
2019-03-30T14:47:03.041Z,20.52
2019-03-30T14:49:31.722Z,20.19
2019-03-30T14:52:00.331Z,20.10
2019-03-30T14:54:29.104Z,19.76
2019-03-30T14:56:57.781Z,19.84
2019-03-30T14:59:26.409Z,19.93
2019-03-30T15:01:55.088Z,19.94
2019-03-30T15:04:23.700Z,20.18
2019-03-30T15:06:52.365Z,20.26
2019-03-30T15:09:21.047Z,20.42
2019-03-30T15:11:49.714Z,20.02
2019-03-30T15:14:18.344Z,19.94
2019-03-30T15:16:47.013Z,20.08
2019-03-30T15:19:15.645Z,19.76
2019-03-30T15:21:44.324Z,19.89
2019-03-30T15:24:12.999Z,19.81
2019-03-30T15:26:41.776Z,19.87
2019-03-30T15:29:10.458Z,19.82
2019-03-30T15:31:39.066Z,19.56
2019-03-30T15:34:07.779Z,19.54
2019-03-30T15:36:36.391Z,18.33
2019-03-30T15:39:07.167Z,18.38
2019-03-30T15:41:35.808Z,18.21
2019-03-30T15:44:04.490Z,17.88
2019-03-30T15:46:33.160Z,17.20
2019-03-30T15:49:01.856Z,16.72
2019-03-30T15:51:30.476Z,16.51
2019-03-30T15:53:59.186Z,16.21
2019-03-30T15:56:27.805Z,16.19
2019-03-30T15:58:56.487Z,15.96
2019-03-30T16:01:25.156Z,15.72
2019-03-30T16:03:53.917Z,15.41
2019-03-30T16:06:22.618Z,15.27
2019-03-30T16:08:51.396Z,15.25
2019-03-30T16:11:20.069Z,15.21
2019-03-30T16:13:48.683Z,15.21
2019-03-30T16:16:17.366Z,15.19
2019-03-30T16:18:46.030Z,15.13
2019-03-30T16:21:14.773Z,14.64
2019-03-30T16:23:43.428Z,14.48
2019-03-30T16:26:12.243Z,14.20
2019-03-30T16:28:40.987Z,13.94
2019-03-30T16:31:09.681Z,13.89
2019-03-30T16:33:38.325Z,13.89
2019-03-30T16:36:07.035Z,13.83
2019-03-30T16:38:35.745Z,13.94
2019-03-30T16:41:05.604Z,14.01
2019-03-30T16:43:34.326Z,13.85
2019-03-30T16:46:03.049Z,13.84
2019-03-30T16:48:33.587Z,13.72
2019-03-30T16:51:02.533Z,13.32
2019-03-30T16:53:31.176Z,13.18
2019-03-30T16:55:59.873Z,12.73
2019-03-30T16:58:28.642Z,13.00
2019-03-30T17:00:57.319Z,13.03
2019-03-30T17:03:26.277Z,12.96
2019-03-30T17:05:55.142Z,12.65
2019-03-30T17:08:26.746Z,12.58
2019-03-30T17:10:55.382Z,12.48
2019-03-30T17:13:26.989Z,12.30
2019-03-30T17:15:58.567Z,12.32
2019-03-30T17:18:26.143Z,12.20
2019-03-30T17:20:56.253Z,12.16
2019-03-30T17:23:25.099Z,12.21
2019-03-30T17:25:55.113Z,12.19
2019-03-30T17:28:23.847Z,12.02
2019-03-30T17:30:52.986Z,11.68
2019-03-30T17:33:21.730Z,11.64
2019-03-30T17:35:50.436Z,11.45
2019-03-30T17:38:19.158Z,11.14
2019-03-30T17:40:49.425Z,10.99
2019-03-30T17:43:18.299Z,10.92
2019-03-30T17:45:48.059Z,10.91
2019-03-30T17:48:16.862Z,10.80
2019-03-30T17:50:50.841Z,10.80
2019-03-30T17:53:21.104Z,10.92
2019-03-30T17:55:50.217Z,10.88
2019-03-30T17:58:19.097Z,10.97
2019-03-30T18:00:48.454Z,10.72
2019-03-30T18:03:17.181Z,10.61
2019-03-30T18:05:46.147Z,10.54
2019-03-30T18:08:16.210Z,10.76
2019-03-30T18:10:45.005Z,10.64
2019-03-30T18:13:13.625Z,10.34
2019-03-30T18:15:42.357Z,10.28
2019-03-30T18:18:11.008Z,10.05
2019-03-30T18:20:39.696Z,10.15
2019-03-30T18:23:08.331Z,10.17
2019-03-30T18:25:37.026Z,10.01
2019-03-30T18:28:05.652Z,9.82
2019-03-30T18:30:36.890Z,9.88
2019-03-30T18:33:06.222Z,9.54
2019-03-30T18:35:36.206Z,9.57
2019-03-30T18:38:05.294Z,9.54
2019-03-30T18:40:35.182Z,9.35
2019-03-30T18:43:03.853Z,9.21
2019-03-30T18:45:32.616Z,9.18
2019-03-30T18:48:16.576Z,9.12
2019-03-30T18:50:47.363Z,9.01
2019-03-30T18:53:16.931Z,8.90
2019-03-30T18:55:45.640Z,8.97
2019-03-30T18:58:14.387Z,8.93
2019-03-30T19:00:43.019Z,8.82
2019-03-30T19:03:11.684Z,8.56
2019-03-30T19:05:40.471Z,8.72
2019-03-30T19:08:09.262Z,8.69
2019-03-30T19:10:37.935Z,8.62
2019-03-30T19:13:06.674Z,8.55
2019-03-30T19:15:35.366Z,8.52
2019-03-30T19:18:05.780Z,8.62
2019-03-30T19:20:34.599Z,8.56
2019-03-30T19:23:03.255Z,8.37
2019-03-30T19:25:31.903Z,8.26
2019-03-30T19:28:00.610Z,8.07
2019-03-30T19:30:29.341Z,8.21
2019-03-30T19:32:59.700Z,7.99
2019-03-30T19:35:28.545Z,7.95
2019-03-30T19:37:57.181Z,7.97
2019-03-30T19:40:25.908Z,7.98
2019-03-30T19:42:54.637Z,7.81
2019-03-30T19:45:23.304Z,7.76
2019-03-30T19:47:51.906Z,7.69
2019-03-30T19:50:20.684Z,7.48
2019-03-30T19:52:50.983Z,7.48
2019-03-30T19:55:19.707Z,7.46
2019-03-30T19:57:48.388Z,7.40
2019-03-30T20:00:17.303Z,7.37
2019-03-30T20:02:46.002Z,7.26
2019-03-30T20:05:14.957Z,7.38
2019-03-30T20:07:43.673Z,7.11
2019-03-30T20:10:12.427Z,7.07
2019-03-30T20:12:41.155Z,7.09
2019-03-30T20:15:11.542Z,7.19
2019-03-30T20:17:40.195Z,7.08
2019-03-30T20:20:09.311Z,7.17
2019-03-30T20:22:37.925Z,7.09
2019-03-30T20:25:09.096Z,6.94
2019-03-30T20:27:37.786Z,6.94
2019-03-30T20:30:10.371Z,6.91
2019-03-30T20:32:39.073Z,6.80
2019-03-30T20:35:08.645Z,6.87
2019-03-30T20:37:37.332Z,6.89
2019-03-30T20:40:09.093Z,6.92
2019-03-30T20:42:37.878Z,6.77
2019-03-30T20:45:07.699Z,6.67
2019-03-30T20:47:36.451Z,6.66
2019-03-30T20:50:06.974Z,6.54
2019-03-30T20:52:35.652Z,6.41
2019-03-30T20:55:05.566Z,6.33
2019-03-30T20:57:34.243Z,6.19
2019-03-30T21:00:03.037Z,6.09
2019-03-30T21:02:31.747Z,6.13
2019-03-30T21:05:00.443Z,6.03
2019-03-30T21:07:29.093Z,5.98
2019-03-30T21:09:57.795Z,6.00
2019-03-30T21:12:26.496Z,5.80
2019-03-30T21:14:55.127Z,5.70
2019-03-30T21:17:23.850Z,5.72
2019-03-30T21:19:52.543Z,5.53
2019-03-30T21:22:21.207Z,5.55
2019-03-30T21:24:49.845Z,5.71
2019-03-30T21:27:18.587Z,5.76
2019-03-30T21:29:54.367Z,5.64
2019-03-30T21:32:17.639Z,5.77
2019-03-30T21:34:46.326Z,5.70
2019-03-30T21:37:15.070Z,5.76
2019-03-30T21:39:43.808Z,5.70
2019-03-30T21:42:12.502Z,5.48
2019-03-30T21:44:41.238Z,5.46
2019-03-30T21:47:09.911Z,5.46
2019-03-30T21:49:38.535Z,5.53
2019-03-30T21:52:07.225Z,5.32
2019-03-30T21:54:35.921Z,5.23
2019-03-30T21:57:04.547Z,5.30
2019-03-30T21:59:33.220Z,5.34
2019-03-30T22:02:01.915Z,5.25
2019-03-30T22:04:30.609Z,5.28
2019-03-30T22:06:59.980Z,5.05
2019-03-30T22:09:29.256Z,5.13
2019-03-30T22:11:57.938Z,5.01
2019-03-30T22:14:26.731Z,4.78
2019-03-30T22:16:55.611Z,4.79
2019-03-30T22:19:24.305Z,4.87
2019-03-30T22:21:53.095Z,4.84
2019-03-30T22:24:21.787Z,4.75
2019-03-30T22:26:50.475Z,4.88
2019-03-30T22:29:19.258Z,4.95
2019-03-30T22:31:47.947Z,4.83
2019-03-30T22:34:18.337Z,4.74
2019-03-30T22:36:46.983Z,4.42
2019-03-30T22:39:15.606Z,4.52
2019-03-30T22:41:44.279Z,4.48
2019-03-30T22:44:12.906Z,4.71
2019-03-30T22:46:41.644Z,4.55
2019-03-30T22:49:10.290Z,4.44
2019-03-30T22:51:38.993Z,4.47
2019-03-30T22:54:07.619Z,4.51
2019-03-30T22:56:36.297Z,4.35
2019-03-30T22:59:04.910Z,4.50
2019-03-30T23:01:33.689Z,4.52
2019-03-30T23:04:02.304Z,4.43
2019-03-30T23:06:30.984Z,4.33
2019-03-30T23:08:59.610Z,4.21
2019-03-30T23:11:28.351Z,4.22
2019-03-30T23:13:56.966Z,4.18
2019-03-30T23:16:25.647Z,4.21
2019-03-30T23:18:54.360Z,4.22
2019-03-30T23:21:23.085Z,4.14
2019-03-30T23:23:51.778Z,4.11
2019-03-30T23:26:20.407Z,4.06
2019-03-30T23:28:49.096Z,4.16
2019-03-30T23:31:17.798Z,4.07
2019-03-30T23:33:46.416Z,4.13
2019-03-30T23:36:15.097Z,3.95
2019-03-30T23:38:43.753Z,4.03
2019-03-30T23:41:12.438Z,4.04
2019-03-30T23:43:41.135Z,3.96
2019-03-30T23:46:10.040Z,3.86
2019-03-30T23:48:38.750Z,3.81
2019-03-30T23:51:07.414Z,3.61
2019-03-30T23:53:36.027Z,3.63
2019-03-30T23:56:07.828Z,3.76
2019-03-30T23:58:36.431Z,3.68
